Time;durP1;ratioP1;P1;durP2;ratioP2;P2;SDS_P1;SDS_P2;PMS_P1;PMS_P2;Temp;Humidity;BMP_temperature;BMP_pressure;BME280_temperature;BME280_humidity;BME280_pressure;Samples;Min_cycle;Max_cycle;Signal;HPM_P1;HPM_P2
2022/08/22 00:02:04;;;;;;;4.88;2.30;;;;;;;18.37;51.34;100329.50;4982216;28;20372;-83
2022/08/22 00:05:09;;;;;;;4.28;2.15;;;;;;;18.41;50.89;100327.25;4982527;28;20038;-82
2022/08/22 00:07:47;;;;;;;3.20;2.03;;;;;;;18.49;50.94;100327.00;4985568;28;20583;-82
2022/08/22 00:10:23;;;;;;;3.85;2.00;;;;;;;18.59;50.45;100329.25;4984208;28;20064;-81
2022/08/22 00:13:06;;;;;;;4.68;2.60;;;;;;;18.68;50.44;100326.16;4982517;28;20041;-82
2022/08/22 00:15:51;;;;;;;5.75;2.42;;;;;;;18.71;50.16;100321.41;4987691;28;20084;-82
2022/08/22 00:18:36;;;;;;;5.13;2.55;;;;;;;18.72;50.09;100323.06;4985263;28;20567;-81
2022/08/22 00:21:05;;;;;;;4.55;2.15;;;;;;;18.71;50.21;100327.59;4986495;28;20038;-82
2022/08/22 00:23:34;;;;;;;4.18;2.50;;;;;;;18.71;50.48;100329.44;4986361;28;20039;-81
2022/08/22 00:26:07;;;;;;;4.18;2.28;;;;;;;18.69;49.93;100327.00;4985871;28;20030;-82
2022/08/22 00:28:45;;;;;;;5.07;2.60;;;;;;;18.67;50.20;100321.03;4988124;28;20117;-82
2022/08/22 00:31:21;;;;;;;5.30;2.67;;;;;;;18.62;50.57;100318.97;4984597;28;20531;-82
2022/08/22 00:34:01;;;;;;;6.40;2.33;;;;;;;18.63;50.24;100323.28;4982120;28;20065;-83
2022/08/22 00:36:43;;;;;;;4.07;2.40;;;;;;;18.63;50.56;100317.91;4984337;28;20030;-82
2022/08/22 00:39:14;;;;;;;;;;;;;;;18.63;50.70;100309.06;4981735;28;20299;-82
2022/08/22 00:42:17;;;;;;;2.80;1.88;;;;;;;18.62;50.09;100312.78;4983048;28;19918;-81
2022/08/22 00:45:11;;;;;;;2.60;1.70;;;;;;;18.58;49.98;100304.34;4987827;28;20058;-83
2022/08/22 00:47:56;;;;;;;2.55;1.55;;;;;;;18.51;50.08;100316.91;4998442;28;20574;-82
2022/08/22 00:50:54;;;;;;;2.60;1.63;;;;;;;18.41;50.75;100311.19;4985567;28;20326;-82
2022/08/22 00:53:47;;;;;;;3.60;1.83;;;;;;;18.33;50.66;100303.34;4985345;28;20046;-83
2022/08/22 00:56:15;;;;;;;3.58;2.22;;;;;;;18.23;51.20;100301.09;4984520;28;20043;-82
2022/08/22 00:59:05;;;;;;;3.75;1.83;;;;;;;18.15;51.56;100298.66;4986141;28;20042;-83
2022/08/22 01:01:35;;;;;;;3.78;2.17;;;;;;;18.09;51.86;100299.47;4979377;28;20471;-82
2022/08/22 01:04:12;;;;;;;4.32;2.45;;;;;;;18.09;52.11;100304.81;4984548;28;20030;-82
2022/08/22 01:06:56;;;;;;;3.97;2.33;;;;;;;18.15;51.52;100306.69;4988238;28;20059;-82
2022/08/22 01:09:54;;;;;;;4.18;2.10;;;;;;;18.17;51.32;100305.44;4993923;28;20130;-83
2022/08/22 01:12:31;;;;;;;3.67;2.13;;;;;;;18.16;51.77;100302.97;4991115;28;20050;-82
2022/08/22 01:15:01;;;;;;;3.70;2.20;;;;;;;18.08;51.71;100304.00;4980467;28;20490;-82
2022/08/22 01:17:58;;;;;;;2.70;1.85;;;;;;;18.05;52.13;100296.41;4985620;28;20771;-83
2022/08/22 01:20:40;;;;;;;3.10;2.00;;;;;;;18.06;51.76;100300.69;4980738;28;20042;-83
2022/08/22 01:23:45;;;;;;;2.78;1.80;;;;;;;18.06;51.82;100295.34;4984205;28;20038;-82
2022/08/22 01:26:48;;;;;;;4.22;2.10;;;;;;;18.10;51.89;100301.13;4983518;28;20034;-82
2022/08/22 01:29:16;;;;;;;4.55;2.75;;;;;;;18.09;51.83;100311.00;4978814;28;20100;-82
2022/08/22 01:32:20;;;;;;;4.25;2.55;;;;;;;18.11;52.09;100295.56;4984390;28;20402;-82
2022/08/22 01:35:23;;;;;;;3.75;2.45;;;;;;;18.09;52.15;100294.13;4982013;28;20054;-83
2022/08/22 01:38:11;;;;;;;4.13;2.25;;;;;;;18.03;52.44;100293.09;4995274;28;20042;-82
2022/08/22 01:41:00;;;;;;;4.60;2.55;;;;;;;17.98;52.58;100303.59;4983795;28;20577;-82
2022/08/22 01:43:33;;;;;;;5.07;2.58;;;;;;;17.95;52.42;100296.81;4981822;28;20042;-83
2022/08/22 01:46:25;;;;;;;4.65;2.38;;;;;;;17.96;52.75;100308.31;4983370;28;20035;-83
2022/08/22 01:48:55;;;;;;;3.17;2.17;;;;;;;17.95;52.46;100304.84;4981904;28;20058;-84
2022/08/22 01:51:24;;;;;;;3.83;2.10;;;;;;;17.96;52.51;100305.66;4978823;28;20042;-83
2022/08/22 01:53:57;;;;;;;2.97;1.80;;;;;;;17.93;52.60;100301.53;4976914;28;20176;-83
2022/08/22 01:56:24;;;;;;;3.28;1.80;;;;;;;17.87;52.22;100299.66;4975839;28;20381;-82
2022/08/22 01:59:31;;;;;;;3.20;1.90;;;;;;;17.82;52.59;100302.97;4984399;28;20189;-82
2022/08/22 02:02:00;;;;;;;4.13;2.40;;;;;;;17.83;53.06;100307.31;4984079;28;20291;-84
2022/08/22 02:04:41;;;;;;;2.85;1.98;;;;;;;17.82;52.92;100304.81;4987938;28;20133;-82
2022/08/22 02:07:22;;;;;;;3.45;2.22;;;;;;;17.80;53.52;100309.50;4990904;28;20523;-83
2022/08/22 02:10:12;;;;;;;4.75;2.65;;;;;;;17.75;53.37;100307.44;4988372;28;20038;-83
2022/08/22 02:12:40;;;;;;;2.95;2.00;;;;;;;17.73;53.49;100308.69;4986191;28;20054;-82
2022/08/22 02:15:18;;;;;;;3.55;1.80;;;;;;;17.72;53.20;100307.06;4988873;28;20030;-82
2022/08/22 02:18:05;;;;;;;2.33;1.48;;;;;;;17.69;53.34;100307.47;4987086;28;20053;-82
2022/08/22 02:20:55;;;;;;;2.75;1.80;;;;;;;17.67;53.96;100306.84;4978601;28;20065;-82
2022/08/22 02:23:33;;;;;;;3.03;1.63;;;;;;;17.65;53.65;100301.69;4971826;28;20031;-82
2022/08/22 02:26:01;;;;;;;2.35;1.50;;;;;;;17.66;53.68;100302.50;4973788;28;20411;-81
2022/08/22 02:29:09;;;;;;;2.03;1.45;;;;;;;17.66;53.85;100297.16;4984712;28;20043;-82
2022/08/22 02:31:47;;;;;;;2.92;1.55;;;;;;;17.66;53.87;100307.84;4970604;28;20038;-82
2022/08/22 02:34:32;;;;;;;2.67;1.65;;;;;;;17.63;53.75;100303.75;4982845;28;20084;-83
2022/08/22 02:37:11;;;;;;;3.05;1.60;;;;;;;17.60;54.22;100296.94;4980388;28;20041;-82
2022/08/22 02:40:03;;;;;;;2.95;1.48;;;;;;;17.56;54.40;100300.22;4984284;28;20038;-82
2022/08/22 02:42:46;;;;;;;2.85;1.67;;;;;;;17.52;54.58;100299.81;4983117;28;20402;-82
2022/08/22 02:45:21;;;;;;;2.83;1.90;;;;;;;17.47;55.11;100293.41;4983241;28;20556;-83
2022/08/22 02:47:55;;;;;;;3.15;1.90;;;;;;;17.39;55.30;100303.28;4989908;28;20058;-83
2022/08/22 02:50:37;;;;;;;2.78;1.88;;;;;;;17.32;55.20;100298.94;4980908;28;20037;-82
2022/08/22 02:53:22;;;;;;;;;;;;;;;17.22;55.58;100296.66;4971754;28;20047;-82
2022/08/22 02:56:39;;;;;;;3.20;1.88;;;;;;;17.21;55.53;100300.38;4987639;28;20016;-83
2022/08/22 02:59:29;;;;;;;5.10;2.22;;;;;;;17.24;55.31;100294.63;4998048;28;20144;-82
2022/08/22 03:01:55;;;;;;;3.35;2.22;;;;;;;17.25;55.32;100290.09;4972738;28;20101;-82
2022/08/22 03:04:29;;;;;;;4.10;2.22;;;;;;;17.22;55.62;100291.31;4990780;28;20034;-82
2022/08/22 03:07:11;;;;;;;3.60;2.33;;;;;;;17.13;56.88;100293.34;4983130;28;20042;-82
2022/08/22 03:09:45;;;;;;;3.15;2.00;;;;;;;17.04;56.33;100286.53;4984803;28;20039;-82
2022/08/22 03:12:37;;;;;;;3.95;2.30;;;;;;;16.95;56.16;100282.41;4980562;28;20113;-81
2022/08/22 03:15:15;;;;;;;3.40;2.08;;;;;;;16.94;56.21;100289.56;4981155;28;20058;-82
2022/08/22 03:18:02;;;;;;;2.78;1.90;;;;;;;16.94;56.38;100291.41;4984640;28;20404;-82
2022/08/22 03:20:45;;;;;;;4.03;2.13;;;;;;;16.96;56.33;100289.38;4971074;28;20062;-83
2022/08/22 03:23:21;;;;;;;3.55;2.17;;;;;;;16.98;56.07;100290.00;4980739;28;20043;-83
2022/08/22 03:26:05;;;;;;;;;;;;;;;16.96;56.46;100290.19;4981668;28;20046;-82
2022/08/22 03:28:55;;;;;;;3.65;2.10;;;;;;;16.93;57.42;100284.44;4970778;28;20271;-81
2022/08/22 03:31:23;;;;;;;4.88;2.67;;;;;;;16.85;57.55;100288.09;4974304;28;20111;-82
2022/08/22 03:34:21;;;;;;;3.42;2.20;;;;;;;16.76;57.05;100291.94;4989741;28;20042;-82
2022/08/22 03:37:20;;;;;;;3.42;2.28;;;;;;;16.74;57.43;100289.44;4983495;28;20166;-82
2022/08/22 03:40:21;;;;;;;3.25;2.25;;;;;;;16.73;57.54;100295.81;4979094;28;20049;-82
2022/08/22 03:43:17;;;;;;;3.47;2.25;;;;;;;16.68;57.39;100295.56;4982669;28;20038;-82
2022/08/22 03:46:16;;;;;;;3.10;2.00;;;;;;;16.64;57.27;100301.53;4982901;28;20053;-82
2022/08/22 03:49:32;;;;;;;4.22;2.10;;;;;;;16.58;57.64;100305.78;4983339;28;20412;-82
2022/08/22 03:52:18;;;;;;;2.88;2.20;;;;;;;16.47;57.52;100307.19;5018580;28;20310;-82
2022/08/22 03:54:49;;;;;;;3.00;1.88;;;;;;;16.39;57.77;100306.50;5000761;28;20038;-82
2022/08/22 03:57:34;;;;;;;;;;;;;;;16.27;58.75;100311.53;4987996;28;20061;-81
2022/08/22 04:00:00;;;;;;;;;;;;;;;16.16;59.28;100314.72;4981640;28;19961;-82
2022/08/22 04:02:34;;;;;;;3.75;2.30;;;;;;;16.08;58.70;100316.53;4986138;28;19960;-82
2022/08/22 04:05:32;;;;;;;2.92;1.95;;;;;;;15.99;58.90;100317.66;4986237;28;20473;-82
2022/08/22 04:08:16;;;;;;;2.95;2.10;;;;;;;15.90;59.30;100319.66;4983982;28;20581;-82
2022/08/22 04:11:03;;;;;;;2.67;1.88;;;;;;;15.84;59.87;100319.59;4984815;28;20045;-81
2022/08/22 04:13:52;;;;;;;3.42;2.25;;;;;;;15.79;59.86;100320.19;4984638;28;20039;-82
2022/08/22 04:16:38;;;;;;;3.03;2.10;;;;;;;15.72;60.23;100327.28;4984106;28;20030;-82
2022/08/22 04:19:04;;;;;;;3.10;2.30;;;;;;;15.68;60.23;100331.31;4982926;28;20394;-83
2022/08/22 04:22:00;;;;;;;3.65;2.25;;;;;;;15.63;60.64;100328.38;4986801;28;20102;-81
2022/08/22 04:24:52;;;;;;;3.47;2.15;;;;;;;15.60;60.38;100328.78;4985127;28;20487;-82
2022/08/22 04:27:54;;;;;;;4.97;2.40;;;;;;;15.55;61.36;100331.19;4982548;28;20176;-82
2022/08/22 04:30:37;;;;;;;3.45;2.20;;;;;;;15.50;61.17;100329.09;4998733;28;20050;-81
2022/08/22 04:33:06;;;;;;;3.08;2.20;;;;;;;15.46;60.94;100325.97;4980712;28;20038;-82
2022/08/22 04:35:49;;;;;;;2.67;1.98;;;;;;;15.45;60.79;100326.97;4985086;28;20038;-82
2022/08/22 04:38:29;;;;;;;3.10;2.00;;;;;;;15.47;61.72;100332.97;4982771;28;20056;-81
2022/08/22 04:41:12;;;;;;;3.33;2.20;;;;;;;15.47;61.43;100332.13;4982968;28;20056;-81
2022/08/22 04:43:50;;;;;;;3.42;2.03;;;;;;;15.43;62.15;100329.00;4984493;28;20277;-81
2022/08/22 04:46:22;;;;;;;3.72;2.50;;;;;;;15.43;61.94;100337.00;4982186;28;20523;-82
2022/08/22 04:49:06;;;;;;;2.90;2.20;;;;;;;15.43;62.14;100336.19;4983337;28;20090;-81
2022/08/22 04:51:45;;;;;;;3.55;2.70;;;;;;;15.42;62.11;100332.69;4984837;28;20464;-82
2022/08/22 04:54:17;;;;;;;3.42;2.10;;;;;;;15.45;62.04;100334.16;4980995;28;20035;-82
2022/08/22 04:57:02;;;;;;;4.90;2.50;;;;;;;15.46;63.24;100330.47;4979586;28;20038;-82
2022/08/22 04:59:29;;;;;;;3.80;2.42;;;;;;;15.49;62.41;100332.75;4986276;28;20176;-81
2022/08/22 05:01:57;;;;;;;2.80;1.95;;;;;;;15.54;62.17;100340.19;4986114;28;20042;-81
2022/08/22 05:04:23;;;;;;;3.80;2.33;;;;;;;15.59;61.74;100337.78;4984463;28;20026;-81
2022/08/22 05:06:52;;;;;;;3.27;1.97;;;;;;;15.65;61.91;100345.84;4985394;28;20126;-82
2022/08/22 05:09:25;;;;;;;3.55;1.98;;;;;;;15.73;61.93;100344.94;4985581;28;20277;-82
2022/08/22 05:11:54;;;;;;;3.85;2.20;;;;;;;15.82;61.67;100342.97;4984728;28;20038;-82
2022/08/22 05:14:30;;;;;;;2.75;1.90;;;;;;;15.93;62.00;100343.28;4983950;28;20037;-82
2022/08/22 05:16:57;;;;;;;3.72;2.22;;;;;;;16.01;61.80;100336.97;4985451;28;20065;-82
2022/08/22 05:19:32;;;;;;;3.83;2.20;;;;;;;16.18;61.82;100342.88;4978110;28;20077;-82
2022/08/22 05:21:57;;;;;;;4.82;2.40;;;;;;;16.37;61.33;100336.03;4986030;28;20042;-82
2022/08/22 05:24:29;;;;;;;3.03;2.10;;;;;;;16.61;60.95;100347.28;4984173;28;20487;-83
2022/08/22 05:26:57;;;;;;;3.85;2.13;;;;;;;16.90;60.22;100336.41;4980381;28;20038;-83
2022/08/22 05:29:27;;;;;;;3.17;2.20;;;;;;;17.19;60.16;100332.63;4984974;28;20034;-82
2022/08/22 05:32:05;;;;;;;2.95;2.00;;;;;;;17.53;59.55;100340.75;4984023;28;20414;-82
2022/08/22 05:34:36;;;;;;;3.45;2.10;;;;;;;17.76;59.23;100340.38;4985374;28;20035;-83
2022/08/22 05:37:11;;;;;;;3.93;2.30;;;;;;;18.04;58.41;100333.03;4981721;28;20375;-82
2022/08/22 05:39:45;;;;;;;3.85;2.00;;;;;;;18.35;57.81;100333.41;4980183;28;20657;-84
2022/08/22 05:42:17;;;;;;;4.47;2.30;;;;;;;18.67;57.19;100326.38;4984502;28;20053;-84
2022/08/22 05:44:42;;;;;;;3.83;2.17;;;;;;;18.94;56.64;100329.81;4981802;28;20046;-83
2022/08/22 05:47:34;;;;;;;4.22;2.10;;;;;;;19.25;55.80;100330.94;4981322;28;20140;-83
2022/08/22 05:50:06;;;;;;;3.50;2.35;;;;;;;19.51;55.21;100332.66;4981856;28;20113;-84
2022/08/22 05:53:01;;;;;;;3.63;2.25;;;;;;;19.92;54.66;100337.56;4982529;28;20093;-84
2022/08/22 05:55:31;;;;;;;3.00;2.10;;;;;;;20.34;53.98;100331.66;4982245;28;20495;-84
2022/08/22 05:58:08;;;;;;;2.80;2.00;;;;;;;20.76;53.24;100324.66;4980492;28;20034;-83
2022/08/22 06:00:39;;;;;;;2.58;1.73;;;;;;;21.16;52.57;100334.91;4982308;28;20043;-84
2022/08/22 06:03:26;;;;;;;4.25;2.40;;;;;;;21.59;49.79;100335.81;4983209;28;20045;-84
2022/08/22 06:05:56;;;;;;;3.60;2.15;;;;;;;21.91;50.83;100340.97;4980455;28;20034;-84
2022/08/22 06:08:31;;;;;;;3.47;2.30;;;;;;;22.22;50.29;100334.47;4978698;28;20038;-84
2022/08/22 06:11:01;;;;;;;2.83;1.73;;;;;;;22.57;50.19;100331.78;4981235;28;20034;-84
2022/08/22 06:13:33;;;;;;;2.58;1.80;;;;;;;22.96;49.41;100342.84;4980850;28;20034;-83
2022/08/22 06:16:16;;;;;;;3.47;2.17;;;;;;;23.20;47.68;100345.50;4979211;28;20046;-83
2022/08/22 06:18:44;;;;;;;3.42;2.05;;;;;;;23.40;47.62;100342.38;4979267;28;20043;-84
2022/08/22 06:21:19;;;;;;;3.55;1.90;;;;;;;23.64;47.71;100348.47;4980149;28;20411;-84
2022/08/22 06:23:51;;;;;;;4.38;2.05;;;;;;;23.92;47.15;100351.16;4981810;28;20050;-84
2022/08/22 06:26:17;;;;;;;3.33;2.00;;;;;;;24.23;47.23;100348.16;4981397;28;20036;-84
2022/08/22 06:28:46;;;;;;;4.32;2.13;;;;;;;24.50;46.34;100343.72;4977019;28;20038;-84
2022/08/22 06:31:20;;;;;;;2.88;1.80;;;;;;;24.73;45.72;100344.56;4978836;28;20038;-84
2022/08/22 06:33:59;;;;;;;4.47;2.10;;;;;;;25.01;45.37;100349.00;4978531;28;20047;-84
2022/08/22 06:36:31;;;;;;;4.28;1.85;;;;;;;25.24;44.85;100349.81;4979667;28;20443;-84
2022/08/22 06:39:21;;;;;;;3.88;1.75;;;;;;;25.56;44.48;100358.03;4979155;28;20042;-84
2022/08/22 06:41:55;;;;;;;3.03;1.63;;;;;;;25.84;43.55;100363.16;4982135;28;20043;-84
2022/08/22 06:44:28;;;;;;;3.63;2.10;;;;;;;26.01;42.81;100365.78;4984625;28;20076;-82
2022/08/22 06:46:59;;;;;;;2.75;1.65;;;;;;;26.13;42.81;100365.63;4983831;28;20034;-81
2022/08/22 06:49:26;;;;;;;2.97;1.65;;;;;;;26.17;42.61;100371.31;4985223;28;20043;-83
2022/08/22 06:51:58;;;;;;;3.22;1.80;;;;;;;26.25;42.07;100368.13;4984528;28;20034;-82
2022/08/22 06:54:29;;;;;;;3.33;1.58;;;;;;;26.41;41.91;100369.88;4984492;28;20038;-84
2022/08/22 06:56:55;;;;;;;3.17;1.80;;;;;;;26.72;41.02;100369.28;4985224;28;20058;-83
2022/08/22 06:59:27;;;;;;;3.05;1.80;;;;;;;27.01;40.38;100367.81;4984191;28;20061;-85
2022/08/22 07:02:25;;;;;;;2.97;1.80;;;;;;;27.36;40.19;100366.31;4982294;28;20038;-85
2022/08/22 07:04:51;;;;;;;3.13;1.65;;;;;;;27.67;40.02;100363.66;4987165;28;20038;-84
2022/08/22 07:07:18;;;;;;;3.47;1.83;;;;;;;27.93;39.39;100365.34;4989219;28;20425;-85
2022/08/22 07:09:54;;;;;;;2.92;1.67;;;;;;;28.21;39.08;100378.66;4991554;28;20060;-84
2022/08/22 07:12:25;;;;;;;3.65;1.90;;;;;;;28.39;38.14;100372.69;5003317;28;20068;-85
2022/08/22 07:14:52;;;;;;;;;;;;;;;28.52;37.12;100377.56;4987141;28;20046;-83
2022/08/22 07:17:24;;;;;;;;;;;;;;;28.64;36.92;100387.34;4985417;28;19943;-82
2022/08/22 07:19:58;;;;;;;4.65;2.15;;;;;;;28.77;36.43;100389.47;4979734;28;19926;-83
2022/08/22 07:22:29;;;;;;;2.55;1.50;;;;;;;29.06;36.26;100391.56;4984958;28;20046;-83
2022/08/22 07:25:15;;;;;;;3.45;1.77;;;;;;;29.21;35.98;100383.34;4985303;28;20030;-82
2022/08/22 07:27:58;;;;;;;3.53;1.92;;;;;;;29.46;35.60;100385.13;4974622;28;20066;-83
2022/08/22 07:30:34;;;;;;;3.08;1.92;;;;;;;29.66;34.55;100392.38;4984037;28;20043;-83
2022/08/22 07:33:05;;;;;;;5.13;2.08;;;;;;;29.83;34.50;100392.81;4984965;28;20034;-82
2022/08/22 07:35:41;;;;;;;;;;;;;;;30.23;33.85;100395.53;4985670;28;20111;-82
2022/08/22 07:38:34;;;;;;;2.92;1.60;;;;;;;30.61;33.38;100398.47;4982608;28;19917;-83
2022/08/22 07:41:21;;;;;;;3.80;1.92;;;;;;;30.97;33.16;100398.91;4982210;28;20369;-83
2022/08/22 07:44:09;;;;;;;3.42;1.92;;;;;;;31.21;32.01;100401.59;4982857;28;20079;-84
2022/08/22 07:46:47;;;;;;;3.80;1.50;;;;;;;31.38;32.03;100401.09;4998449;28;20258;-86
2022/08/22 07:49:20;;;;;;;5.95;2.28;;;;;;;31.61;30.33;100404.13;4984092;28;20112;-85
2022/08/22 07:51:50;;;;;;;4.13;2.13;;;;;;;31.92;30.45;100401.72;4982494;28;20095;-86
2022/08/22 07:54:24;;;;;;;5.30;2.15;;;;;;;32.13;29.85;100397.56;4979657;28;20102;-85
2022/08/22 07:57:04;;;;;;;4.82;2.10;;;;;;;31.55;30.20;100397.91;4982499;28;20038;-85
2022/08/22 07:59:34;;;;;;;2.87;1.77;;;;;;;30.92;30.28;100395.44;4983854;28;20037;-83
2022/08/22 08:02:04;;;;;;;3.20;2.17;;;;;;;30.44;30.45;100402.44;4982185;28;20129;-83
2022/08/22 08:04:33;;;;;;;4.07;2.40;;;;;;;29.98;31.00;100404.72;4980733;28;20104;-83
2022/08/22 08:07:01;;;;;;;3.80;2.03;;;;;;;29.51;31.33;100406.91;4984263;28;20054;-81
2022/08/22 08:09:31;;;;;;;3.60;1.80;;;;;;;29.19;31.85;100399.16;4984919;28;20026;-83
2022/08/22 08:11:59;;;;;;;3.67;1.90;;;;;;;28.66;32.12;100401.50;4984175;28;20034;-83
2022/08/22 08:14:25;;;;;;;3.53;2.10;;;;;;;28.29;32.71;100403.41;4983913;28;20060;-83
2022/08/22 08:17:08;;;;;;;3.38;2.08;;;;;;;28.16;33.02;100401.22;4985203;28;20055;-83
2022/08/22 08:19:38;;;;;;;4.30;2.35;;;;;;;28.11;33.71;100402.06;4985088;28;20066;-82
2022/08/22 08:22:04;;;;;;;3.17;1.70;;;;;;;28.28;33.31;100398.25;4989311;28;20447;-82
2022/08/22 08:24:36;;;;;;;4.60;2.03;;;;;;;29.09;33.27;100404.66;4988871;28;20042;-81
2022/08/22 08:30:10;;;;;;;2.95;1.98;;;;;;;31.83;30.62;100398.84;4988810;28;20338;-82
2022/08/22 08:32:37;;;;;;;4.95;2.35;;;;;;;32.89;29.46;100396.47;4992137;28;20526;-84
2022/08/22 08:35:19;;;;;;;6.35;2.50;;;;;;;33.59;28.18;100398.06;4990804;28;20053;-82
2022/08/22 08:37:48;;;;;;;5.15;2.38;;;;;;;34.10;27.77;100390.56;4990089;28;20042;-82
2022/08/22 08:40:42;;;;;;;5.70;2.28;;;;;;;34.77;27.16;100393.16;4988983;28;20031;-83
2022/08/22 08:43:27;;;;;;;5.00;2.53;;;;;;;35.56;26.47;100393.34;4991353;28;20444;-82
2022/08/22 08:46:07;;;;;;;;;;;;;;;36.13;23.63;100390.44;4989340;28;20046;-83
2022/08/22 08:48:51;;;;;;;;;;;;;;;36.28;25.07;100387.16;4991381;28;19929;-83
2022/08/22 08:51:26;;;;;;;5.32;2.47;;;;;;;36.16;24.10;100389.78;4983304;28;19922;-82
2022/08/22 08:54:23;;;;;;;3.65;2.10;;;;;;;36.32;22.93;100379.84;4980161;28;20038;-83
2022/08/22 08:57:02;;;;;;;5.50;2.33;;;;;;;36.71;22.91;100385.41;4981956;28;20042;-83
2022/08/22 09:00:02;;;;;;;5.20;2.60;;;;;;;36.66;23.62;100383.66;4982654;28;20409;-84
2022/08/22 09:02:46;;;;;;;3.00;2.05;;;;;;;37.35;23.38;100382.44;4981455;28;20054;-84
2022/08/22 09:06:05;;;;;;;4.57;2.65;;;;;;;38.01;21.71;100381.72;4979832;28;20034;-84
2022/08/22 09:08:50;;;;;;;6.75;2.85;;;;;;;38.60;20.96;100380.59;5004040;28;20246;-84
2022/08/22 09:11:46;;;;;;;5.72;2.63;;;;;;;39.21;20.65;100379.75;5021258;28;20076;-84
2022/08/22 09:14:21;;;;;;;6.28;2.00;;;;;;;39.79;20.02;100378.66;4983745;28;20479;-84
2022/08/22 09:17:18;;;;;;;;;;;;;;;40.11;20.29;100382.31;4981765;28;20026;-84
2022/08/22 09:20:08;;;;;;;3.78;2.45;;;;;;;40.88;19.27;100386.63;4982928;28;19922;-84
2022/08/22 09:22:33;;;;;;;4.30;2.10;;;;;;;41.30;18.31;100378.47;4992841;28;20384;-84
2022/08/22 09:25:22;;;;;;;3.43;1.80;;;;;;;41.81;18.20;100385.84;4979808;28;20034;-85
2022/08/22 09:27:59;;;;;;;5.97;2.55;;;;;;;42.27;17.26;100388.72;4980424;28;20038;-85
2022/08/22 09:30:36;;;;;;;6.15;2.13;;;;;;;42.40;16.07;100390.16;4975279;28;20527;-84
2022/08/22 09:33:11;;;;;;;4.07;2.00;;;;;;;42.74;16.50;100387.53;4984225;28;20035;-85
2022/08/22 09:36:06;;;;;;;3.28;2.15;;;;;;;42.08;16.69;100384.03;4968094;28;20058;-84
2022/08/22 09:38:43;;;;;;;5.15;2.05;;;;;;;40.64;17.76;100370.97;4984487;28;20045;-83
2022/08/22 09:41:08;;;;;;;5.18;2.28;;;;;;;40.15;17.94;100368.56;4989268;28;20244;-82
2022/08/22 09:43:40;;;;;;;2.87;1.77;;;;;;;39.95;18.47;100371.19;4981619;28;20050;-84
2022/08/22 09:46:12;;;;;;;2.90;1.83;;;;;;;40.71;17.72;100366.47;4981739;28;20391;-84
2022/08/22 09:48:59;;;;;;;;;;;;;;;41.37;17.63;100361.97;4978021;28;20054;-85
2022/08/22 09:51:51;;;;;;;3.67;1.90;;;;;;;41.88;17.17;100361.00;4981808;28;19929;-85
2022/08/22 09:54:36;;;;;;;3.72;2.05;;;;;;;42.82;15.85;100355.09;4981828;28;20056;-86
2022/08/22 09:57:30;;;;;;;3.00;1.70;;;;;;;42.82;15.78;100350.31;4981578;28;20030;-84
2022/08/22 10:00:13;;;;;;;5.28;2.10;;;;;;;42.05;16.19;100350.59;4981743;28;20364;-86
2022/08/22 10:03:01;;;;;;;4.88;1.95;;;;;;;41.90;15.90;100343.97;4985009;28;20038;-85
2022/08/22 10:05:38;;;;;;;3.42;1.90;;;;;;;42.58;15.86;100339.59;4982745;28;20126;-85
2022/08/22 10:08:22;;;;;;;2.78;1.88;;;;;;;42.93;15.02;100341.31;4983747;28;20380;-83
2022/08/22 10:11:24;;;;;;;3.22;2.08;;;;;;;42.90;15.33;100342.88;4974770;28;20097;-86
2022/08/22 10:14:08;;;;;;;4.43;2.17;;;;;;;42.61;15.13;100330.50;4991624;28;20061;-85
2022/08/22 10:17:01;;;;;;;3.35;1.80;;;;;;;42.17;14.97;100333.78;4985839;28;20039;-84
2022/08/22 10:19:41;;;;;;;2.60;1.70;;;;;;;42.99;15.37;100331.47;4980639;28;20113;-85
2022/08/22 10:22:06;;;;;;;;;;;;;;;43.20;14.76;100317.84;4983533;28;20042;-85
2022/08/22 10:24:45;;;;;;;3.58;1.98;;;;;;;43.56;14.49;100317.47;4985714;28;20020;-86
2022/08/22 10:27:20;;;;;;;2.42;1.70;;;;;;;43.10;15.16;100306.53;4987149;28;20125;-86
2022/08/22 10:30:07;;;;;;;3.50;1.67;;;;;;;43.19;14.61;100310.63;4979020;28;20510;-85
2022/08/22 10:32:54;;;;;;;2.45;1.70;;;;;;;40.55;16.53;100301.91;4981497;28;20042;-84
2022/08/22 10:35:25;;;;;;;2.75;1.73;;;;;;;38.74;17.64;100299.28;4981037;28;20112;-85
2022/08/22 10:38:08;;;;;;;2.30;1.58;;;;;;;39.08;18.02;100295.22;4986126;28;20129;-84
2022/08/22 10:40:40;;;;;;;2.80;1.73;;;;;;;40.60;17.42;100301.63;4987085;28;20238;-84
2022/08/22 10:43:19;;;;;;;4.70;2.10;;;;;;;40.96;16.42;100305.22;4984665;28;20064;-84
2022/08/22 10:45:49;;;;;;;3.85;1.90;;;;;;;40.69;17.18;100315.28;4981651;28;20503;-84
2022/08/22 10:48:25;;;;;;;4.18;1.90;;;;;;;42.82;15.56;100316.16;4983573;28;20380;-85
2022/08/22 10:50:58;;;;;;;2.72;1.60;;;;;;;42.96;15.26;100308.00;4982046;28;20085;-84
2022/08/22 10:53:45;;;;;;;2.45;1.55;;;;;;;42.82;15.49;100299.44;4978594;28;20053;-85
2022/08/22 10:56:19;;;;;;;2.60;1.40;;;;;;;44.14;14.58;100307.69;4992291;28;20528;-85
2022/08/22 10:59:01;;;;;;;1.90;1.30;;;;;;;44.59;13.90;100298.06;4993364;28;20417;-84
2022/08/22 11:01:32;;;;;;;2.50;1.65;;;;;;;44.72;13.76;100301.34;4995234;28;20030;-84
2022/08/22 11:04:22;;;;;;;2.55;1.60;;;;;;;45.48;13.13;100289.31;4994462;28;20026;-84
2022/08/22 11:06:57;;;;;;;;;;;;;;;45.97;12.19;100301.78;4990824;28;20042;-85
2022/08/22 11:09:39;;;;;;;2.22;1.50;;;;;;;46.44;12.01;100301.78;4986851;28;19922;-84
2022/08/22 11:12:28;;;;;;;2.42;1.67;;;;;;;46.26;11.92;100289.78;4987796;28;20094;-85
2022/08/22 11:15:02;;;;;;;2.25;1.30;;;;;;;46.12;11.54;100288.59;4986291;28;20096;-84
2022/08/22 11:17:49;;;;;;;2.60;1.58;;;;;;;46.49;10.87;100283.78;4988276;28;20187;-85
2022/08/22 11:20:35;;;;;;;2.40;1.80;;;;;;;44.08;12.78;100282.19;4987228;28;20468;-84
2022/08/22 11:23:22;;;;;;;2.75;1.50;;;;;;;43.28;13.16;100279.78;4989863;28;20042;-84
2022/08/22 11:25:54;;;;;;;2.17;1.40;;;;;;;42.00;14.12;100269.22;5001515;28;20535;-84
2022/08/22 11:28:55;;;;;;;2.97;1.70;;;;;;;39.59;15.95;100273.34;5007776;28;20314;-85
2022/08/22 11:31:26;;;;;;;3.00;1.70;;;;;;;37.73;17.03;100267.53;4987409;28;20043;-84
2022/08/22 11:34:08;;;;;;;2.28;1.75;;;;;;;36.26;18.54;100264.72;4990392;28;20030;-84
2022/08/22 11:36:45;;;;;;;3.28;1.80;;;;;;;35.19;19.26;100264.44;4992482;28;20491;-84
2022/08/22 11:39:11;;;;;;;2.45;1.58;;;;;;;34.45;20.39;100260.59;4985890;28;20042;-84
2022/08/22 11:41:48;;;;;;;3.45;1.73;;;;;;;34.11;20.44;100254.97;4987997;28;20038;-83
2022/08/22 11:44:21;;;;;;;1.92;1.40;;;;;;;34.07;21.49;100264.94;4984562;28;20419;-83
2022/08/22 11:46:50;;;;;;;3.70;1.50;;;;;;;34.75;20.28;100262.78;4984947;28;20027;-84
2022/08/22 11:49:28;;;;;;;1.90;1.38;;;;;;;35.36;19.97;100258.13;4987508;28;20053;-83
2022/08/22 11:52:20;;;;;;;3.55;1.60;;;;;;;37.87;18.09;100258.94;4989895;28;20033;-84
2022/08/22 11:54:59;;;;;;;2.75;1.65;;;;;;;39.23;17.30;100258.50;4989479;28;20038;-84
2022/08/22 11:57:36;;;;;;;2.30;1.40;;;;;;;37.86;18.23;100252.63;5000932;28;20050;-84
2022/08/22 12:00:11;;;;;;;2.75;1.80;;;;;;;38.99;17.10;100256.63;4991400;28;20502;-84
2022/08/22 12:02:45;;;;;;;2.95;1.60;;;;;;;41.00;15.88;100263.66;4989473;28;20038;-84
2022/08/22 12:05:23;;;;;;;2.75;1.50;;;;;;;39.75;16.69;100256.75;4984096;28;20117;-84
2022/08/22 12:08:08;;;;;;;2.15;1.40;;;;;;;37.90;17.88;100250.81;4983960;28;20451;-84
2022/08/22 12:10:46;;;;;;;3.70;1.50;;;;;;;36.28;19.44;100248.66;4996159;28;20051;-83
2022/08/22 12:13:23;;;;;;;2.60;1.60;;;;;;;35.67;20.00;100252.44;4987891;28;20066;-84
2022/08/22 12:16:18;;;;;;;2.65;1.65;;;;;;;34.82;20.45;100247.41;4989655;28;20034;-83
2022/08/22 12:19:04;;;;;;;2.50;1.75;;;;;;;34.17;21.14;100237.25;4990352;28;20076;-83
2022/08/22 12:21:39;;;;;;;2.42;1.60;;;;;;;34.16;21.29;100243.88;4988496;28;20062;-83
2022/08/22 12:24:26;;;;;;;2.53;1.80;;;;;;;34.19;21.89;100243.22;4986382;28;20098;-84
2022/08/22 12:27:10;;;;;;;3.13;1.65;;;;;;;34.43;21.59;100234.56;4989546;28;20114;-84
2022/08/22 12:29:59;;;;;;;3.00;1.60;;;;;;;34.63;20.98;100242.22;4987720;28;20050;-84
2022/08/22 12:32:51;;;;;;;2.78;1.50;;;;;;;34.66;21.56;100230.63;4982139;28;20392;-84